sensor_id;sensor_type;location;lat;lon;timestamp;P1;durP1;ratioP1;P2;durP2;ratioP2
52742;SDS011;55583;53.012;6.556;2023-07-30T00:01:48;14.50;;;6.05;;
52742;SDS011;55583;53.012;6.556;2023-07-30T00:04:14;18.23;;;5.95;;
52742;SDS011;55583;53.012;6.556;2023-07-30T00:09:10;19.17;;;6.78;;
52742;SDS011;55583;53.012;6.556;2023-07-30T00:11:35;14.07;;;6.88;;
52742;SDS011;55583;53.012;6.556;2023-07-30T00:14:01;16.50;;;6.63;;
52742;SDS011;55583;53.012;6.556;2023-07-30T00:16:27;21.55;;;6.57;;
52742;SDS011;55583;53.012;6.556;2023-07-30T00:18:53;21.70;;;7.03;;
52742;SDS011;55583;53.012;6.556;2023-07-30T00:21:18;17.15;;;6.63;;
52742;SDS011;55583;53.012;6.556;2023-07-30T00:23:44;17.17;;;6.93;;
52742;SDS011;55583;53.012;6.556;2023-07-30T00:26:09;17.15;;;6.47;;
52742;SDS011;55583;53.012;6.556;2023-07-30T00:28:35;17.08;;;7.00;;
52742;SDS011;55583;53.012;6.556;2023-07-30T00:31:01;16.65;;;6.43;;
52742;SDS011;55583;53.012;6.556;2023-07-30T00:33:26;19.90;;;7.05;;
52742;SDS011;55583;53.012;6.556;2023-07-30T00:35:52;19.75;;;7.28;;
52742;SDS011;55583;53.012;6.556;2023-07-30T00:38:18;19.67;;;7.28;;
52742;SDS011;55583;53.012;6.556;2023-07-30T00:40:44;20.58;;;6.45;;
52742;SDS011;55583;53.012;6.556;2023-07-30T00:43:10;21.85;;;7.03;;
52742;SDS011;55583;53.012;6.556;2023-07-30T00:45:36;13.35;;;7.88;;
52742;SDS011;55583;53.012;6.556;2023-07-30T00:48:03;26.23;;;7.38;;
52742;SDS011;55583;53.012;6.556;2023-07-30T00:50:29;16.63;;;7.10;;
52742;SDS011;55583;53.012;6.556;2023-07-30T00:52:56;28.25;;;8.20;;
52742;SDS011;55583;53.012;6.556;2023-07-30T00:55:22;23.27;;;7.43;;
52742;SDS011;55583;53.012;6.556;2023-07-30T00:57:48;27.30;;;8.43;;
52742;SDS011;55583;53.012;6.556;2023-07-30T01:00:14;30.02;;;7.97;;
52742;SDS011;55583;53.012;6.556;2023-07-30T01:02:40;20.75;;;6.85;;
52742;SDS011;55583;53.012;6.556;2023-07-30T01:05:05;22.13;;;7.03;;
52742;SDS011;55583;53.012;6.556;2023-07-30T01:07:31;24.83;;;7.90;;
52742;SDS011;55583;53.012;6.556;2023-07-30T01:09:57;20.92;;;7.22;;
52742;SDS011;55583;53.012;6.556;2023-07-30T01:12:24;27.85;;;8.48;;
52742;SDS011;55583;53.012;6.556;2023-07-30T01:14:51;32.15;;;9.43;;
52742;SDS011;55583;53.012;6.556;2023-07-30T01:17:17;23.52;;;7.90;;
52742;SDS011;55583;53.012;6.556;2023-07-30T01:19:43;26.42;;;8.32;;
52742;SDS011;55583;53.012;6.556;2023-07-30T01:22:09;25.80;;;8.18;;
52742;SDS011;55583;53.012;6.556;2023-07-30T01:24:35;26.52;;;8.07;;
52742;SDS011;55583;53.012;6.556;2023-07-30T01:27:07;34.80;;;8.18;;
52742;SDS011;55583;53.012;6.556;2023-07-30T01:29:45;31.90;;;7.65;;
52742;SDS011;55583;53.012;6.556;2023-07-30T01:32:16;25.08;;;7.35;;
52742;SDS011;55583;53.012;6.556;2023-07-30T01:34:45;25.02;;;8.18;;
52742;SDS011;55583;53.012;6.556;2023-07-30T01:37:14;21.50;;;7.40;;
52742;SDS011;55583;53.012;6.556;2023-07-30T01:39:41;23.17;;;7.45;;
52742;SDS011;55583;53.012;6.556;2023-07-30T01:42:11;22.08;;;7.10;;
52742;SDS011;55583;53.012;6.556;2023-07-30T01:44:37;30.02;;;7.75;;
52742;SDS011;55583;53.012;6.556;2023-07-30T01:47:03;29.30;;;7.72;;
52742;SDS011;55583;53.012;6.556;2023-07-30T01:49:28;35.65;;;8.70;;
52742;SDS011;55583;53.012;6.556;2023-07-30T01:51:54;27.50;;;7.32;;
52742;SDS011;55583;53.012;6.556;2023-07-30T01:54:20;28.67;;;7.18;;
52742;SDS011;55583;53.012;6.556;2023-07-30T01:56:45;23.52;;;7.07;;
52742;SDS011;55583;53.012;6.556;2023-07-30T01:59:11;37.38;;;9.48;;
52742;SDS011;55583;53.012;6.556;2023-07-30T02:01:36;34.38;;;10.15;;
52742;SDS011;55583;53.012;6.556;2023-07-30T02:04:02;62.17;;;31.60;;
52742;SDS011;55583;53.012;6.556;2023-07-30T02:06:28;51.90;;;27.58;;
52742;SDS011;55583;53.012;6.556;2023-07-30T02:08:53;56.83;;;23.55;;
52742;SDS011;55583;53.012;6.556;2023-07-30T02:11:19;38.60;;;15.70;;
52742;SDS011;55583;53.012;6.556;2023-07-30T02:13:44;39.45;;;11.13;;
52742;SDS011;55583;53.012;6.556;2023-07-30T02:16:10;42.85;;;12.13;;
52742;SDS011;55583;53.012;6.556;2023-07-30T02:18:36;38.63;;;10.98;;
52742;SDS011;55583;53.012;6.556;2023-07-30T02:21:02;35.15;;;10.20;;
52742;SDS011;55583;53.012;6.556;2023-07-30T02:23:27;29.95;;;8.82;;
52742;SDS011;55583;53.012;6.556;2023-07-30T02:25:53;27.55;;;8.25;;
52742;SDS011;55583;53.012;6.556;2023-07-30T02:28:19;26.60;;;7.97;;
52742;SDS011;55583;53.012;6.556;2023-07-30T02:30:44;29.25;;;7.78;;
52742;SDS011;55583;53.012;6.556;2023-07-30T02:33:10;35.85;;;8.23;;
52742;SDS011;55583;53.012;6.556;2023-07-30T02:35:36;36.38;;;7.90;;
52742;SDS011;55583;53.012;6.556;2023-07-30T02:38:02;35.80;;;8.43;;
52742;SDS011;55583;53.012;6.556;2023-07-30T02:40:28;37.95;;;7.90;;
52742;SDS011;55583;53.012;6.556;2023-07-30T02:42:54;27.80;;;9.48;;
52742;SDS011;55583;53.012;6.556;2023-07-30T02:45:19;29.10;;;8.38;;
52742;SDS011;55583;53.012;6.556;2023-07-30T02:47:45;25.98;;;8.10;;
52742;SDS011;55583;53.012;6.556;2023-07-30T02:50:11;25.88;;;6.43;;
52742;SDS011;55583;53.012;6.556;2023-07-30T02:52:36;33.25;;;7.45;;
52742;SDS011;55583;53.012;6.556;2023-07-30T02:55:02;23.52;;;7.72;;
52742;SDS011;55583;53.012;6.556;2023-07-30T02:57:28;25.27;;;6.78;;
52742;SDS011;55583;53.012;6.556;2023-07-30T02:59:53;26.60;;;6.75;;
52742;SDS011;55583;53.012;6.556;2023-07-30T03:02:19;26.27;;;6.63;;
52742;SDS011;55583;53.012;6.556;2023-07-30T03:04:44;20.73;;;6.95;;
52742;SDS011;55583;53.012;6.556;2023-07-30T03:07:10;26.75;;;7.05;;
52742;SDS011;55583;53.012;6.556;2023-07-30T03:09:36;30.23;;;6.50;;
52742;SDS011;55583;53.012;6.556;2023-07-30T03:12:01;21.80;;;5.55;;
52742;SDS011;55583;53.012;6.556;2023-07-30T03:14:27;24.20;;;6.40;;
52742;SDS011;55583;53.012;6.556;2023-07-30T03:16:54;23.65;;;5.53;;
52742;SDS011;55583;53.012;6.556;2023-07-30T03:19:20;21.55;;;6.10;;
52742;SDS011;55583;53.012;6.556;2023-07-30T03:21:45;25.70;;;6.18;;
52742;SDS011;55583;53.012;6.556;2023-07-30T03:24:11;25.38;;;5.40;;
52742;SDS011;55583;53.012;6.556;2023-07-30T03:26:37;22.90;;;6.03;;
52742;SDS011;55583;53.012;6.556;2023-07-30T03:29:02;36.10;;;7.13;;
52742;SDS011;55583;53.012;6.556;2023-07-30T03:31:28;33.08;;;6.32;;
52742;SDS011;55583;53.012;6.556;2023-07-30T03:33:53;17.60;;;5.47;;
52742;SDS011;55583;53.012;6.556;2023-07-30T03:36:19;24.75;;;6.45;;
52742;SDS011;55583;53.012;6.556;2023-07-30T03:38:45;19.15;;;5.82;;
52742;SDS011;55583;53.012;6.556;2023-07-30T03:41:11;18.60;;;5.20;;
52742;SDS011;55583;53.012;6.556;2023-07-30T03:43:36;27.95;;;6.38;;
52742;SDS011;55583;53.012;6.556;2023-07-30T03:46:02;19.05;;;5.10;;
52742;SDS011;55583;53.012;6.556;2023-07-30T03:48:28;19.77;;;5.57;;
52742;SDS011;55583;53.012;6.556;2023-07-30T03:50:54;22.00;;;5.60;;
52742;SDS011;55583;53.012;6.556;2023-07-30T03:53:20;18.27;;;5.38;;
52742;SDS011;55583;53.012;6.556;2023-07-30T03:55:46;27.05;;;5.93;;
52742;SDS011;55583;53.012;6.556;2023-07-30T03:58:12;21.10;;;5.65;;
52742;SDS011;55583;53.012;6.556;2023-07-30T04:00:38;18.33;;;5.25;;
52742;SDS011;55583;53.012;6.556;2023-07-30T04:03:04;22.70;;;5.60;;
52742;SDS011;55583;53.012;6.556;2023-07-30T04:05:30;20.30;;;6.38;;
52742;SDS011;55583;53.012;6.556;2023-07-30T04:07:56;20.33;;;5.50;;
52742;SDS011;55583;53.012;6.556;2023-07-30T04:10:22;21.73;;;5.30;;
52742;SDS011;55583;53.012;6.556;2023-07-30T04:12:48;26.40;;;5.20;;
52742;SDS011;55583;53.012;6.556;2023-07-30T04:15:16;23.88;;;5.18;;
52742;SDS011;55583;53.012;6.556;2023-07-30T04:17:42;25.00;;;5.10;;
52742;SDS011;55583;53.012;6.556;2023-07-30T04:20:08;20.70;;;5.20;;
52742;SDS011;55583;53.012;6.556;2023-07-30T04:22:35;22.67;;;5.78;;
52742;SDS011;55583;53.012;6.556;2023-07-30T04:25:01;21.67;;;5.32;;
52742;SDS011;55583;53.012;6.556;2023-07-30T04:27:26;20.63;;;5.18;;
52742;SDS011;55583;53.012;6.556;2023-07-30T04:29:52;23.05;;;5.43;;
52742;SDS011;55583;53.012;6.556;2023-07-30T04:32:18;23.65;;;5.72;;
52742;SDS011;55583;53.012;6.556;2023-07-30T04:34:43;22.30;;;5.53;;
52742;SDS011;55583;53.012;6.556;2023-07-30T04:37:09;17.77;;;5.75;;
52742;SDS011;55583;53.012;6.556;2023-07-30T04:39:35;19.63;;;5.00;;
52742;SDS011;55583;53.012;6.556;2023-07-30T04:42:01;22.20;;;5.53;;
52742;SDS011;55583;53.012;6.556;2023-07-30T04:44:27;23.67;;;5.50;;
52742;SDS011;55583;53.012;6.556;2023-07-30T04:46:53;21.70;;;5.07;;
52742;SDS011;55583;53.012;6.556;2023-07-30T04:49:18;25.23;;;5.95;;
52742;SDS011;55583;53.012;6.556;2023-07-30T04:51:44;17.20;;;4.70;;
52742;SDS011;55583;53.012;6.556;2023-07-30T04:54:10;24.30;;;5.38;;
52742;SDS011;55583;53.012;6.556;2023-07-30T04:56:36;24.15;;;5.47;;
52742;SDS011;55583;53.012;6.556;2023-07-30T04:59:02;21.17;;;5.18;;
52742;SDS011;55583;53.012;6.556;2023-07-30T05:01:28;18.40;;;4.95;;
52742;SDS011;55583;53.012;6.556;2023-07-30T05:03:54;24.35;;;5.60;;
52742;SDS011;55583;53.012;6.556;2023-07-30T05:06:20;16.70;;;4.95;;
52742;SDS011;55583;53.012;6.556;2023-07-30T05:08:46;16.45;;;4.82;;
52742;SDS011;55583;53.012;6.556;2023-07-30T05:11:11;25.58;;;6.05;;
52742;SDS011;55583;53.012;6.556;2023-07-30T05:13:37;22.83;;;5.50;;
52742;SDS011;55583;53.012;6.556;2023-07-30T05:16:03;26.48;;;5.95;;
52742;SDS011;55583;53.012;6.556;2023-07-30T05:18:28;22.30;;;5.60;;
52742;SDS011;55583;53.012;6.556;2023-07-30T05:20:54;20.95;;;5.53;;
52742;SDS011;55583;53.012;6.556;2023-07-30T05:23:20;27.20;;;5.47;;
52742;SDS011;55583;53.012;6.556;2023-07-30T05:25:46;19.90;;;5.70;;
52742;SDS011;55583;53.012;6.556;2023-07-30T05:28:11;18.98;;;5.07;;
52742;SDS011;55583;53.012;6.556;2023-07-30T05:30:37;26.92;;;5.32;;
52742;SDS011;55583;53.012;6.556;2023-07-30T05:33:03;25.73;;;4.80;;
52742;SDS011;55583;53.012;6.556;2023-07-30T05:35:28;21.92;;;4.93;;
52742;SDS011;55583;53.012;6.556;2023-07-30T05:37:54;20.17;;;5.25;;
52742;SDS011;55583;53.012;6.556;2023-07-30T05:40:20;20.02;;;5.43;;
52742;SDS011;55583;53.012;6.556;2023-07-30T05:42:46;21.00;;;4.72;;
52742;SDS011;55583;53.012;6.556;2023-07-30T05:45:12;28.30;;;5.43;;
52742;SDS011;55583;53.012;6.556;2023-07-30T05:47:38;21.77;;;4.93;;
52742;SDS011;55583;53.012;6.556;2023-07-30T05:50:04;20.15;;;5.15;;
52742;SDS011;55583;53.012;6.556;2023-07-30T05:52:30;18.40;;;5.63;;
52742;SDS011;55583;53.012;6.556;2023-07-30T05:54:55;20.15;;;5.45;;
52742;SDS011;55583;53.012;6.556;2023-07-30T05:57:21;21.95;;;5.45;;
52742;SDS011;55583;53.012;6.556;2023-07-30T05:59:47;23.67;;;5.45;;
52742;SDS011;55583;53.012;6.556;2023-07-30T06:02:12;21.60;;;4.75;;
52742;SDS011;55583;53.012;6.556;2023-07-30T06:04:38;18.65;;;4.25;;
52742;SDS011;55583;53.012;6.556;2023-07-30T06:07:04;17.58;;;4.85;;
52742;SDS011;55583;53.012;6.556;2023-07-30T06:09:30;17.48;;;5.75;;
52742;SDS011;55583;53.012;6.556;2023-07-30T06:11:56;21.27;;;5.25;;
52742;SDS011;55583;53.012;6.556;2023-07-30T06:14:23;15.27;;;4.88;;
52742;SDS011;55583;53.012;6.556;2023-07-30T06:16:49;14.77;;;5.05;;
52742;SDS011;55583;53.012;6.556;2023-07-30T06:19:15;15.77;;;5.18;;
52742;SDS011;55583;53.012;6.556;2023-07-30T06:21:40;16.90;;;5.68;;
52742;SDS011;55583;53.012;6.556;2023-07-30T06:24:06;18.08;;;4.95;;
52742;SDS011;55583;53.012;6.556;2023-07-30T06:26:31;28.80;;;5.95;;
52742;SDS011;55583;53.012;6.556;2023-07-30T06:28:57;17.42;;;4.90;;
52742;SDS011;55583;53.012;6.556;2023-07-30T06:31:23;16.50;;;4.82;;
52742;SDS011;55583;53.012;6.556;2023-07-30T06:33:49;17.42;;;5.13;;
52742;SDS011;55583;53.012;6.556;2023-07-30T06:36:15;24.35;;;5.68;;
52742;SDS011;55583;53.012;6.556;2023-07-30T06:38:40;20.40;;;5.85;;
52742;SDS011;55583;53.012;6.556;2023-07-30T06:41:06;18.02;;;5.20;;
52742;SDS011;55583;53.012;6.556;2023-07-30T06:43:32;24.73;;;4.80;;
52742;SDS011;55583;53.012;6.556;2023-07-30T06:45:57;26.00;;;5.47;;
52742;SDS011;55583;53.012;6.556;2023-07-30T06:48:23;17.20;;;4.78;;
52742;SDS011;55583;53.012;6.556;2023-07-30T06:50:49;18.35;;;5.32;;
52742;SDS011;55583;53.012;6.556;2023-07-30T06:53:14;21.45;;;5.50;;
52742;SDS011;55583;53.012;6.556;2023-07-30T06:55:40;17.08;;;5.18;;
52742;SDS011;55583;53.012;6.556;2023-07-30T06:58:06;25.23;;;5.68;;
52742;SDS011;55583;53.012;6.556;2023-07-30T07:00:32;18.52;;;4.78;;
52742;SDS011;55583;53.012;6.556;2023-07-30T07:02:57;16.23;;;5.07;;
52742;SDS011;55583;53.012;6.556;2023-07-30T07:05:23;24.60;;;5.63;;
52742;SDS011;55583;53.012;6.556;2023-07-30T07:07:49;19.98;;;5.18;;
52742;SDS011;55583;53.012;6.556;2023-07-30T07:10:15;19.20;;;4.88;;
52742;SDS011;55583;53.012;6.556;2023-07-30T07:12:40;26.35;;;4.97;;
52742;SDS011;55583;53.012;6.556;2023-07-30T07:15:06;19.63;;;5.55;;
52742;SDS011;55583;53.012;6.556;2023-07-30T07:17:32;18.70;;;5.05;;
52742;SDS011;55583;53.012;6.556;2023-07-30T07:19:58;16.90;;;4.45;;
52742;SDS011;55583;53.012;6.556;2023-07-30T07:22:24;20.40;;;5.25;;
52742;SDS011;55583;53.012;6.556;2023-07-30T07:24:51;19.35;;;4.78;;
52742;SDS011;55583;53.012;6.556;2023-07-30T07:27:18;22.70;;;4.78;;
52742;SDS011;55583;53.012;6.556;2023-07-30T07:29:44;18.02;;;4.28;;
52742;SDS011;55583;53.012;6.556;2023-07-30T07:32:09;25.40;;;4.72;;
52742;SDS011;55583;53.012;6.556;2023-07-30T07:34:35;18.33;;;4.47;;
52742;SDS011;55583;53.012;6.556;2023-07-30T07:37:02;18.45;;;4.22;;
52742;SDS011;55583;53.012;6.556;2023-07-30T07:39:28;17.92;;;3.78;;
52742;SDS011;55583;53.012;6.556;2023-07-30T07:41:54;12.93;;;3.33;;
52742;SDS011;55583;53.012;6.556;2023-07-30T07:44:20;15.27;;;4.18;;
52742;SDS011;55583;53.012;6.556;2023-07-30T07:46:46;20.88;;;4.63;;
52742;SDS011;55583;53.012;6.556;2023-07-30T07:49:12;12.48;;;3.35;;
52742;SDS011;55583;53.012;6.556;2023-07-30T07:51:38;20.70;;;3.78;;
52742;SDS011;55583;53.012;6.556;2023-07-30T07:54:04;14.70;;;4.10;;
52742;SDS011;55583;53.012;6.556;2023-07-30T07:56:30;16.80;;;3.92;;
52742;SDS011;55583;53.012;6.556;2023-07-30T07:58:56;19.08;;;4.07;;
52742;SDS011;55583;53.012;6.556;2023-07-30T08:01:22;13.27;;;3.97;;
52742;SDS011;55583;53.012;6.556;2023-07-30T08:03:48;13.40;;;3.40;;
52742;SDS011;55583;53.012;6.556;2023-07-30T08:06:13;18.67;;;3.53;;
52742;SDS011;55583;53.012;6.556;2023-07-30T08:08:39;21.48;;;3.65;;
52742;SDS011;55583;53.012;6.556;2023-07-30T08:11:08;17.60;;;3.03;;
52742;SDS011;55583;53.012;6.556;2023-07-30T08:13:34;35.63;;;4.97;;
52742;SDS011;55583;53.012;6.556;2023-07-30T08:16:00;23.15;;;4.15;;
52742;SDS011;55583;53.012;6.556;2023-07-30T08:18:26;14.70;;;3.67;;
52742;SDS011;55583;53.012;6.556;2023-07-30T08:20:52;39.67;;;4.75;;
52742;SDS011;55583;53.012;6.556;2023-07-30T08:23:17;16.85;;;4.20;;
52742;SDS011;55583;53.012;6.556;2023-07-30T08:25:43;21.60;;;3.60;;
52742;SDS011;55583;53.012;6.556;2023-07-30T08:28:09;10.50;;;3.38;;
52742;SDS011;55583;53.012;6.556;2023-07-30T08:30:34;21.70;;;3.92;;
52742;SDS011;55583;53.012;6.556;2023-07-30T08:33:00;19.70;;;3.78;;
52742;SDS011;55583;53.012;6.556;2023-07-30T08:35:25;19.85;;;4.10;;
52742;SDS011;55583;53.012;6.556;2023-07-30T08:37:54;34.20;;;5.18;;
52742;SDS011;55583;53.012;6.556;2023-07-30T08:40:21;24.05;;;4.35;;
52742;SDS011;55583;53.012;6.556;2023-07-30T08:42:49;25.70;;;5.32;;
52742;SDS011;55583;53.012;6.556;2023-07-30T08:45:18;20.85;;;4.60;;
52742;SDS011;55583;53.012;6.556;2023-07-30T08:47:45;18.67;;;4.35;;
52742;SDS011;55583;53.012;6.556;2023-07-30T08:50:12;19.92;;;4.53;;
52742;SDS011;55583;53.012;6.556;2023-07-30T08:52:38;23.00;;;4.35;;
52742;SDS011;55583;53.012;6.556;2023-07-30T08:55:05;13.45;;;4.70;;
52742;SDS011;55583;53.012;6.556;2023-07-30T08:57:31;17.48;;;4.25;;
52742;SDS011;55583;53.012;6.556;2023-07-30T09:00:02;21.95;;;4.90;;
52742;SDS011;55583;53.012;6.556;2023-07-30T09:02:34;16.95;;;4.35;;
52742;SDS011;55583;53.012;6.556;2023-07-30T09:05:04;23.95;;;4.93;;
52742;SDS011;55583;53.012;6.556;2023-07-30T09:07:31;23.67;;;4.28;;
52742;SDS011;55583;53.012;6.556;2023-07-30T09:09:56;27.40;;;5.93;;
52742;SDS011;55583;53.012;6.556;2023-07-30T09:12:29;24.77;;;5.28;;
52742;SDS011;55583;53.012;6.556;2023-07-30T09:14:58;24.88;;;4.50;;
52742;SDS011;55583;53.012;6.556;2023-07-30T09:17:24;19.20;;;4.45;;
52742;SDS011;55583;53.012;6.556;2023-07-30T09:19:51;15.55;;;4.47;;
52742;SDS011;55583;53.012;6.556;2023-07-30T09:22:35;15.85;;;3.97;;
52742;SDS011;55583;53.012;6.556;2023-07-30T09:25:04;21.38;;;4.65;;
52742;SDS011;55583;53.012;6.556;2023-07-30T09:27:30;14.27;;;3.22;;
52742;SDS011;55583;53.012;6.556;2023-07-30T09:29:58;10.52;;;3.00;;
52742;SDS011;55583;53.012;6.556;2023-07-30T09:32:34;13.02;;;3.25;;
52742;SDS011;55583;53.012;6.556;2023-07-30T09:35:06;21.63;;;3.55;;
52742;SDS011;55583;53.012;6.556;2023-07-30T09:37:37;14.88;;;3.42;;
52742;SDS011;55583;53.012;6.556;2023-07-30T09:40:09;10.13;;;2.88;;
52742;SDS011;55583;53.012;6.556;2023-07-30T09:42:38;9.30;;;2.42;;
52742;SDS011;55583;53.012;6.556;2023-07-30T09:45:21;12.88;;;2.35;;
52742;SDS011;55583;53.012;6.556;2023-07-30T09:47:49;9.93;;;2.35;;
52742;SDS011;55583;53.012;6.556;2023-07-30T09:50:19;10.73;;;2.60;;
52742;SDS011;55583;53.012;6.556;2023-07-30T09:52:45;12.15;;;2.50;;
52742;SDS011;55583;53.012;6.556;2023-07-30T09:55:11;9.98;;;2.72;;
52742;SDS011;55583;53.012;6.556;2023-07-30T09:57:37;10.98;;;2.13;;
52742;SDS011;55583;53.012;6.556;2023-07-30T10:00:04;10.80;;;2.30;;
52742;SDS011;55583;53.012;6.556;2023-07-30T10:02:31;6.78;;;2.30;;
52742;SDS011;55583;53.012;6.556;2023-07-30T10:05:02;9.43;;;2.63;;
52742;SDS011;55583;53.012;6.556;2023-07-30T10:07:31;6.15;;;2.35;;
52742;SDS011;55583;53.012;6.556;2023-07-30T10:10:00;4.95;;;2.42;;
52742;SDS011;55583;53.012;6.556;2023-07-30T10:12:28;4.28;;;2.13;;
52742;SDS011;55583;53.012;6.556;2023-07-30T10:14:57;13.10;;;2.30;;
52742;SDS011;55583;53.012;6.556;2023-07-30T10:17:23;6.65;;;2.03;;
52742;SDS011;55583;53.012;6.556;2023-07-30T10:19:49;3.90;;;1.98;;
52742;SDS011;55583;53.012;6.556;2023-07-30T10:24:56;4.60;;;2.53;;
52742;SDS011;55583;53.012;6.556;2023-07-30T10:27:24;8.13;;;2.03;;
52742;SDS011;55583;53.012;6.556;2023-07-30T10:35:05;11.93;;;1.85;;
52742;SDS011;55583;53.012;6.556;2023-07-30T10:37:31;9.75;;;2.25;;
52742;SDS011;55583;53.012;6.556;2023-07-30T10:39:56;6.55;;;2.25;;
52742;SDS011;55583;53.012;6.556;2023-07-30T10:42:22;13.38;;;2.33;;
52742;SDS011;55583;53.012;6.556;2023-07-30T10:44:48;8.88;;;2.25;;
52742;SDS011;55583;53.012;6.556;2023-07-30T10:47:14;7.68;;;2.35;;
52742;SDS011;55583;53.012;6.556;2023-07-30T10:49:41;6.75;;;2.47;;
52742;SDS011;55583;53.012;6.556;2023-07-30T10:52:09;4.85;;;1.70;;
52742;SDS011;55583;53.012;6.556;2023-07-30T10:54:35;8.43;;;2.15;;
52742;SDS011;55583;53.012;6.556;2023-07-30T10:57:05;9.32;;;2.30;;
52742;SDS011;55583;53.012;6.556;2023-07-30T10:59:35;10.38;;;2.08;;
52742;SDS011;55583;53.012;6.556;2023-07-30T11:02:01;14.52;;;2.65;;
52742;SDS011;55583;53.012;6.556;2023-07-30T11:04:28;6.15;;;1.95;;
52742;SDS011;55583;53.012;6.556;2023-07-30T11:06:53;9.63;;;2.17;;
52742;SDS011;55583;53.012;6.556;2023-07-30T11:09:19;8.93;;;2.22;;
52742;SDS011;55583;53.012;6.556;2023-07-30T11:11:49;8.55;;;1.98;;
52742;SDS011;55583;53.012;6.556;2023-07-30T11:14:16;13.88;;;2.45;;
52742;SDS011;55583;53.012;6.556;2023-07-30T11:17:17;10.30;;;2.33;;
52742;SDS011;55583;53.012;6.556;2023-07-30T11:19:43;9.57;;;2.42;;
52742;SDS011;55583;53.012;6.556;2023-07-30T11:22:09;12.25;;;2.45;;
52742;SDS011;55583;53.012;6.556;2023-07-30T11:24:35;13.25;;;2.67;;
52742;SDS011;55583;53.012;6.556;2023-07-30T11:27:02;9.20;;;2.30;;
52742;SDS011;55583;53.012;6.556;2023-07-30T11:29:28;5.93;;;2.17;;
52742;SDS011;55583;53.012;6.556;2023-07-30T11:31:57;7.28;;;2.55;;
52742;SDS011;55583;53.012;6.556;2023-07-30T11:34:24;5.40;;;1.60;;
52742;SDS011;55583;53.012;6.556;2023-07-30T11:36:51;6.68;;;2.03;;
52742;SDS011;55583;53.012;6.556;2023-07-30T11:39:17;3.83;;;1.55;;
52742;SDS011;55583;53.012;6.556;2023-07-30T11:41:43;12.05;;;2.05;;
52742;SDS011;55583;53.012;6.556;2023-07-30T11:44:28;7.38;;;2.28;;
52742;SDS011;55583;53.012;6.556;2023-07-30T11:46:58;8.27;;;2.10;;
52742;SDS011;55583;53.012;6.556;2023-07-30T11:49:24;8.70;;;2.22;;
52742;SDS011;55583;53.012;6.556;2023-07-30T11:51:49;7.60;;;1.90;;
52742;SDS011;55583;53.012;6.556;2023-07-30T11:54:22;8.82;;;1.85;;
52742;SDS011;55583;53.012;6.556;2023-07-30T11:56:53;6.72;;;1.80;;
52742;SDS011;55583;53.012;6.556;2023-07-30T11:59:20;6.35;;;1.67;;
52742;SDS011;55583;53.012;6.556;2023-07-30T12:01:48;8.27;;;2.10;;
52742;SDS011;55583;53.012;6.556;2023-07-30T12:04:14;9.75;;;2.40;;
52742;SDS011;55583;53.012;6.556;2023-07-30T12:06:58;10.18;;;1.67;;
52742;SDS011;55583;53.012;6.556;2023-07-30T12:09:27;8.10;;;2.45;;
52742;SDS011;55583;53.012;6.556;2023-07-30T12:11:56;10.73;;;2.58;;
52742;SDS011;55583;53.012;6.556;2023-07-30T12:17:14;8.93;;;2.38;;
52742;SDS011;55583;53.012;6.556;2023-07-30T12:19:40;7.72;;;2.40;;
52742;SDS011;55583;53.012;6.556;2023-07-30T12:22:06;7.63;;;2.05;;
52742;SDS011;55583;53.012;6.556;2023-07-30T12:24:32;8.15;;;1.83;;
52742;SDS011;55583;53.012;6.556;2023-07-30T12:26:58;6.35;;;1.90;;
52742;SDS011;55583;53.012;6.556;2023-07-30T12:29:24;8.95;;;2.08;;
52742;SDS011;55583;53.012;6.556;2023-07-30T12:31:50;7.15;;;2.03;;
52742;SDS011;55583;53.012;6.556;2023-07-30T12:34:21;5.13;;;1.50;;
52742;SDS011;55583;53.012;6.556;2023-07-30T12:36:48;6.95;;;1.77;;
52742;SDS011;55583;53.012;6.556;2023-07-30T12:39:13;3.05;;;1.77;;
52742;SDS011;55583;53.012;6.556;2023-07-30T12:41:39;4.78;;;1.52;;
52742;SDS011;55583;53.012;6.556;2023-07-30T12:44:05;8.57;;;2.00;;
52742;SDS011;55583;53.012;6.556;2023-07-30T12:46:31;6.38;;;1.58;;
52742;SDS011;55583;53.012;6.556;2023-07-30T12:48:58;6.95;;;1.35;;
52742;SDS011;55583;53.012;6.556;2023-07-30T12:51:29;6.93;;;1.65;;
52742;SDS011;55583;53.012;6.556;2023-07-30T12:53:55;5.68;;;1.80;;
52742;SDS011;55583;53.012;6.556;2023-07-30T12:56:21;12.55;;;1.98;;
52742;SDS011;55583;53.012;6.556;2023-07-30T12:58:47;11.23;;;2.10;;
52742;SDS011;55583;53.012;6.556;2023-07-30T13:01:13;10.93;;;2.13;;
52742;SDS011;55583;53.012;6.556;2023-07-30T13:03:38;6.68;;;2.08;;
52742;SDS011;55583;53.012;6.556;2023-07-30T13:06:04;9.98;;;2.53;;
52742;SDS011;55583;53.012;6.556;2023-07-30T13:08:30;10.43;;;2.58;;
52742;SDS011;55583;53.012;6.556;2023-07-30T13:10:56;10.57;;;3.00;;
52742;SDS011;55583;53.012;6.556;2023-07-30T13:13:21;6.47;;;1.65;;
52742;SDS011;55583;53.012;6.556;2023-07-30T13:15:48;10.45;;;2.35;;
52742;SDS011;55583;53.012;6.556;2023-07-30T13:18:14;10.63;;;1.67;;
52742;SDS011;55583;53.012;6.556;2023-07-30T13:20:40;11.02;;;2.13;;
52742;SDS011;55583;53.012;6.556;2023-07-30T13:23:05;13.40;;;2.20;;
52742;SDS011;55583;53.012;6.556;2023-07-30T13:25:31;7.18;;;2.45;;
52742;SDS011;55583;53.012;6.556;2023-07-30T13:27:57;9.45;;;1.83;;
52742;SDS011;55583;53.012;6.556;2023-07-30T13:30:22;14.07;;;2.50;;
52742;SDS011;55583;53.012;6.556;2023-07-30T13:32:48;11.70;;;2.50;;
52742;SDS011;55583;53.012;6.556;2023-07-30T13:35:14;11.50;;;2.35;;
52742;SDS011;55583;53.012;6.556;2023-07-30T13:37:39;9.30;;;2.20;;
52742;SDS011;55583;53.012;6.556;2023-07-30T13:40:05;7.28;;;1.73;;
52742;SDS011;55583;53.012;6.556;2023-07-30T13:42:31;7.45;;;1.50;;
52742;SDS011;55583;53.012;6.556;2023-07-30T13:44:57;12.57;;;2.05;;
52742;SDS011;55583;53.012;6.556;2023-07-30T13:47:22;8.07;;;2.28;;
52742;SDS011;55583;53.012;6.556;2023-07-30T13:49:48;6.82;;;1.98;;
52742;SDS011;55583;53.012;6.556;2023-07-30T13:52:14;7.40;;;1.95;;
52742;SDS011;55583;53.012;6.556;2023-07-30T13:54:40;6.90;;;1.95;;
52742;SDS011;55583;53.012;6.556;2023-07-30T13:57:07;7.50;;;2.30;;
52742;SDS011;55583;53.012;6.556;2023-07-30T13:59:33;6.88;;;1.92;;
52742;SDS011;55583;53.012;6.556;2023-07-30T14:01:58;9.88;;;2.03;;
52742;SDS011;55583;53.012;6.556;2023-07-30T14:04:24;6.15;;;1.50;;
52742;SDS011;55583;53.012;6.556;2023-07-30T14:06:50;5.30;;;1.35;;
52742;SDS011;55583;53.012;6.556;2023-07-30T14:09:16;6.65;;;1.52;;
52742;SDS011;55583;53.012;6.556;2023-07-30T14:11:41;6.93;;;1.52;;
52742;SDS011;55583;53.012;6.556;2023-07-30T14:14:10;4.35;;;1.50;;
52742;SDS011;55583;53.012;6.556;2023-07-30T14:16:36;9.38;;;1.73;;
52742;SDS011;55583;53.012;6.556;2023-07-30T14:19:01;6.32;;;1.88;;
52742;SDS011;55583;53.012;6.556;2023-07-30T14:21:27;5.80;;;1.30;;
52742;SDS011;55583;53.012;6.556;2023-07-30T14:23:53;6.88;;;1.40;;
52742;SDS011;55583;53.012;6.556;2023-07-30T14:26:18;5.82;;;1.75;;
52742;SDS011;55583;53.012;6.556;2023-07-30T14:28:44;6.30;;;1.48;;
52742;SDS011;55583;53.012;6.556;2023-07-30T14:31:10;8.27;;;2.70;;
52742;SDS011;55583;53.012;6.556;2023-07-30T14:33:36;9.50;;;1.77;;
52742;SDS011;55583;53.012;6.556;2023-07-30T14:36:01;4.95;;;1.83;;
52742;SDS011;55583;53.012;6.556;2023-07-30T14:38:28;4.38;;;1.48;;
52742;SDS011;55583;53.012;6.556;2023-07-30T14:40:56;5.75;;;1.90;;
52742;SDS011;55583;53.012;6.556;2023-07-30T14:43:21;4.00;;;1.23;;
52742;SDS011;55583;53.012;6.556;2023-07-30T14:45:48;9.35;;;2.22;;
52742;SDS011;55583;53.012;6.556;2023-07-30T14:48:14;5.97;;;1.83;;